UATG/GUW METAR and TAF weather

Enter ICAO airport designator
Station Type Date Time Source
UATG METAR 2021/07/29 03:00 UTC NOAA

UATG 290300Z 03004MPS CAVOK 22/06 Q1013 R32/CLRD70 NOSIG RMK QFE762/1016


Station Type Date Time Source
UATG Decoded METAR 2021/07/29 03:00 UTC NOAA

Station name not available
Jul 28, 2021 - 11:00 PM EDT / 2021.07.29 0300 UTC
Wind: from the NNE (030 degrees) at 9 MPH (8 KT):0
Visibility: greater than 7 mile(s):0
Temperature: 71 F (22 C)
Dew Point: 42 F (6 C)
Relative Humidity: 35%
Pressure (altimeter): 29.91 in. Hg (1013 hPa)
ob: UATG 290300Z 03004MPS CAVOK 22/06 Q1013 R32/CLRD70 NOSIG RMK QFE762/1016
cycle: 3

Station Type Date Time Source
UATG TAF 2021/07/28 20:21 UTC NOAA

TAF
AMD TAF
AMD UATG 281919Z 2820/2918 VRB03MPS 9999 SCT033CB TX33/2910Z TN19/2901Z
BECMG 2904/2906 04006MPS

Example: see airport list